sensor_id;sensor_type;location;lat;lon;timestamp;P1;durP1;ratioP1;P2;durP2;ratioP2
22070;SDS011;11200;51.488;6.668;2023-05-16T00:00:13;1.92;;;1.45;;
22070;SDS011;11200;51.488;6.668;2023-05-16T00:02:39;2.58;;;1.35;;
22070;SDS011;11200;51.488;6.668;2023-05-16T00:05:05;2.38;;;1.58;;
22070;SDS011;11200;51.488;6.668;2023-05-16T00:07:51;2.13;;;1.52;;
22070;SDS011;11200;51.488;6.668;2023-05-16T00:10:16;1.50;;;1.33;;
22070;SDS011;11200;51.488;6.668;2023-05-16T00:12:42;2.67;;;1.50;;
22070;SDS011;11200;51.488;6.668;2023-05-16T00:15:09;2.58;;;1.50;;
22070;SDS011;11200;51.488;6.668;2023-05-16T00:17:39;2.53;;;1.45;;
22070;SDS011;11200;51.488;6.668;2023-05-16T00:20:05;2.88;;;1.30;;
22070;SDS011;11200;51.488;6.668;2023-05-16T00:22:35;2.15;;;1.20;;
22070;SDS011;11200;51.488;6.668;2023-05-16T00:25:01;3.60;;;1.58;;
22070;SDS011;11200;51.488;6.668;2023-05-16T00:27:27;3.55;;;1.30;;
22070;SDS011;11200;51.488;6.668;2023-05-16T00:29:53;2.78;;;1.50;;
22070;SDS011;11200;51.488;6.668;2023-05-16T00:32:19;1.52;;;1.00;;
22070;SDS011;11200;51.488;6.668;2023-05-16T00:34:44;2.45;;;1.40;;
22070;SDS011;11200;51.488;6.668;2023-05-16T00:37:10;1.73;;;1.63;;
22070;SDS011;11200;51.488;6.668;2023-05-16T00:39:36;2.85;;;1.63;;
22070;SDS011;11200;51.488;6.668;2023-05-16T00:42:05;2.65;;;1.52;;
22070;SDS011;11200;51.488;6.668;2023-05-16T00:44:32;1.60;;;1.30;;
22070;SDS011;11200;51.488;6.668;2023-05-16T00:46:58;3.47;;;1.38;;
22070;SDS011;11200;51.488;6.668;2023-05-16T00:49:26;2.42;;;1.45;;
22070;SDS011;11200;51.488;6.668;2023-05-16T00:51:53;3.30;;;1.35;;
22070;SDS011;11200;51.488;6.668;2023-05-16T00:54:22;2.47;;;1.05;;
22070;SDS011;11200;51.488;6.668;2023-05-16T00:56:51;1.65;;;1.13;;
22070;SDS011;11200;51.488;6.668;2023-05-16T00:59:17;2.95;;;1.30;;
22070;SDS011;11200;51.488;6.668;2023-05-16T01:01:46;2.45;;;1.30;;
22070;SDS011;11200;51.488;6.668;2023-05-16T01:04:13;3.45;;;1.60;;
22070;SDS011;11200;51.488;6.668;2023-05-16T01:06:38;2.72;;;1.52;;
22070;SDS011;11200;51.488;6.668;2023-05-16T01:09:04;1.90;;;1.23;;
22070;SDS011;11200;51.488;6.668;2023-05-16T01:16:55;2.90;;;1.40;;
22070;SDS011;11200;51.488;6.668;2023-05-16T01:22:24;4.75;;;1.70;;
22070;SDS011;11200;51.488;6.668;2023-05-16T01:28:15;2.17;;;1.20;;
22070;SDS011;11200;51.488;6.668;2023-05-16T01:30:42;3.17;;;1.30;;
22070;SDS011;11200;51.488;6.668;2023-05-16T01:33:08;2.47;;;1.40;;
22070;SDS011;11200;51.488;6.668;2023-05-16T01:35:39;3.97;;;1.77;;
22070;SDS011;11200;51.488;6.668;2023-05-16T01:38:25;3.13;;;1.48;;
22070;SDS011;11200;51.488;6.668;2023-05-16T01:40:58;4.70;;;1.73;;
22070;SDS011;11200;51.488;6.668;2023-05-16T01:43:58;3.58;;;1.35;;
22070;SDS011;11200;51.488;6.668;2023-05-16T01:46:28;3.58;;;1.38;;
22070;SDS011;11200;51.488;6.668;2023-05-16T01:49:04;2.38;;;1.35;;
22070;SDS011;11200;51.488;6.668;2023-05-16T01:52:04;3.40;;;1.52;;
22070;SDS011;11200;51.488;6.668;2023-05-16T01:54:44;3.03;;;1.48;;
22070;SDS011;11200;51.488;6.668;2023-05-16T01:57:13;3.45;;;1.45;;
22070;SDS011;11200;51.488;6.668;2023-05-16T01:59:40;3.60;;;1.70;;
22070;SDS011;11200;51.488;6.668;2023-05-16T02:02:07;3.28;;;1.80;;
22070;SDS011;11200;51.488;6.668;2023-05-16T02:04:34;4.22;;;1.52;;
22070;SDS011;11200;51.488;6.668;2023-05-16T02:06:59;3.70;;;1.80;;
22070;SDS011;11200;51.488;6.668;2023-05-16T02:09:25;3.55;;;1.50;;
22070;SDS011;11200;51.488;6.668;2023-05-16T02:11:51;5.28;;;1.95;;
22070;SDS011;11200;51.488;6.668;2023-05-16T02:14:17;6.43;;;2.00;;
22070;SDS011;11200;51.488;6.668;2023-05-16T02:16:43;3.75;;;1.60;;
22070;SDS011;11200;51.488;6.668;2023-05-16T02:19:08;3.42;;;1.55;;
22070;SDS011;11200;51.488;6.668;2023-05-16T02:21:34;5.68;;;1.70;;
22070;SDS011;11200;51.488;6.668;2023-05-16T02:24:00;5.75;;;1.80;;
22070;SDS011;11200;51.488;6.668;2023-05-16T02:26:26;6.25;;;1.80;;
22070;SDS011;11200;51.488;6.668;2023-05-16T02:28:51;5.43;;;1.83;;
22070;SDS011;11200;51.488;6.668;2023-05-16T02:31:27;5.57;;;1.98;;
22070;SDS011;11200;51.488;6.668;2023-05-16T02:33:54;4.47;;;1.67;;
22070;SDS011;11200;51.488;6.668;2023-05-16T02:36:20;4.78;;;1.85;;
22070;SDS011;11200;51.488;6.668;2023-05-16T02:38:46;5.28;;;1.63;;
22070;SDS011;11200;51.488;6.668;2023-05-16T02:41:11;6.43;;;2.17;;
22070;SDS011;11200;51.488;6.668;2023-05-16T02:43:37;4.93;;;1.75;;
22070;SDS011;11200;51.488;6.668;2023-05-16T02:46:22;6.03;;;1.90;;
22070;SDS011;11200;51.488;6.668;2023-05-16T02:48:51;4.57;;;1.92;;
22070;SDS011;11200;51.488;6.668;2023-05-16T02:51:22;3.17;;;1.70;;
22070;SDS011;11200;51.488;6.668;2023-05-16T02:53:49;4.05;;;1.65;;
22070;SDS011;11200;51.488;6.668;2023-05-16T02:56:15;3.97;;;1.90;;
22070;SDS011;11200;51.488;6.668;2023-05-16T02:58:41;5.07;;;1.95;;
22070;SDS011;11200;51.488;6.668;2023-05-16T03:01:07;3.63;;;1.88;;
22070;SDS011;11200;51.488;6.668;2023-05-16T03:03:34;2.83;;;1.70;;
22070;SDS011;11200;51.488;6.668;2023-05-16T03:06:01;5.18;;;1.67;;
22070;SDS011;11200;51.488;6.668;2023-05-16T03:08:28;5.25;;;2.28;;
22070;SDS011;11200;51.488;6.668;2023-05-16T03:10:53;4.22;;;1.90;;
22070;SDS011;11200;51.488;6.668;2023-05-16T03:13:19;4.95;;;1.98;;
22070;SDS011;11200;51.488;6.668;2023-05-16T03:15:44;4.53;;;1.80;;
22070;SDS011;11200;51.488;6.668;2023-05-16T03:18:10;4.28;;;1.77;;
22070;SDS011;11200;51.488;6.668;2023-05-16T03:20:36;4.93;;;1.90;;
22070;SDS011;11200;51.488;6.668;2023-05-16T03:23:02;5.50;;;1.90;;
22070;SDS011;11200;51.488;6.668;2023-05-16T03:25:32;6.45;;;1.95;;
22070;SDS011;11200;51.488;6.668;2023-05-16T03:27:58;5.93;;;2.00;;
22070;SDS011;11200;51.488;6.668;2023-05-16T03:30:24;3.75;;;1.60;;
22070;SDS011;11200;51.488;6.668;2023-05-16T03:32:50;5.68;;;1.98;;
22070;SDS011;11200;51.488;6.668;2023-05-16T03:35:16;6.18;;;1.95;;
22070;SDS011;11200;51.488;6.668;2023-05-16T03:37:42;4.68;;;1.80;;
22070;SDS011;11200;51.488;6.668;2023-05-16T03:40:08;5.63;;;1.80;;
22070;SDS011;11200;51.488;6.668;2023-05-16T03:42:35;2.67;;;1.65;;
22070;SDS011;11200;51.488;6.668;2023-05-16T03:45:03;4.75;;;1.90;;
22070;SDS011;11200;51.488;6.668;2023-05-16T03:47:30;4.18;;;1.55;;
22070;SDS011;11200;51.488;6.668;2023-05-16T03:49:56;5.57;;;1.58;;
22070;SDS011;11200;51.488;6.668;2023-05-16T03:52:22;3.65;;;1.45;;
22070;SDS011;11200;51.488;6.668;2023-05-16T03:54:47;4.13;;;1.52;;
22070;SDS011;11200;51.488;6.668;2023-05-16T03:57:13;3.72;;;1.75;;
22070;SDS011;11200;51.488;6.668;2023-05-16T03:59:39;4.25;;;1.45;;
22070;SDS011;11200;51.488;6.668;2023-05-16T04:02:07;5.30;;;1.52;;
22070;SDS011;11200;51.488;6.668;2023-05-16T04:04:33;5.13;;;1.50;;
22070;SDS011;11200;51.488;6.668;2023-05-16T04:07:01;4.70;;;1.40;;
22070;SDS011;11200;51.488;6.668;2023-05-16T04:09:48;5.20;;;1.90;;
22070;SDS011;11200;51.488;6.668;2023-05-16T04:12:16;3.30;;;1.35;;
22070;SDS011;11200;51.488;6.668;2023-05-16T04:14:42;3.42;;;1.38;;
22070;SDS011;11200;51.488;6.668;2023-05-16T04:17:07;3.30;;;1.45;;
22070;SDS011;11200;51.488;6.668;2023-05-16T04:19:33;2.92;;;1.30;;
22070;SDS011;11200;51.488;6.668;2023-05-16T04:21:59;2.95;;;1.50;;
22070;SDS011;11200;51.488;6.668;2023-05-16T04:24:24;3.97;;;1.42;;
22070;SDS011;11200;51.488;6.668;2023-05-16T04:26:52;2.90;;;1.50;;
22070;SDS011;11200;51.488;6.668;2023-05-16T04:29:19;5.13;;;1.50;;
22070;SDS011;11200;51.488;6.668;2023-05-16T04:31:45;2.67;;;1.35;;
22070;SDS011;11200;51.488;6.668;2023-05-16T04:34:11;4.13;;;1.48;;
22070;SDS011;11200;51.488;6.668;2023-05-16T04:36:37;3.33;;;1.48;;
22070;SDS011;11200;51.488;6.668;2023-05-16T04:39:03;3.20;;;1.30;;
22070;SDS011;11200;51.488;6.668;2023-05-16T04:41:28;6.13;;;1.60;;
22070;SDS011;11200;51.488;6.668;2023-05-16T04:43:57;4.07;;;1.33;;
22070;SDS011;11200;51.488;6.668;2023-05-16T04:46:23;2.92;;;1.38;;
22070;SDS011;11200;51.488;6.668;2023-05-16T04:48:48;5.25;;;1.67;;
22070;SDS011;11200;51.488;6.668;2023-05-16T04:51:14;2.97;;;1.48;;
22070;SDS011;11200;51.488;6.668;2023-05-16T04:53:40;6.68;;;1.88;;
22070;SDS011;11200;51.488;6.668;2023-05-16T04:56:08;3.35;;;1.55;;
22070;SDS011;11200;51.488;6.668;2023-05-16T04:58:33;3.55;;;1.55;;
22070;SDS011;11200;51.488;6.668;2023-05-16T05:00:59;5.50;;;1.55;;
22070;SDS011;11200;51.488;6.668;2023-05-16T05:03:24;5.18;;;1.55;;
22070;SDS011;11200;51.488;6.668;2023-05-16T05:05:50;4.80;;;1.45;;
22070;SDS011;11200;51.488;6.668;2023-05-16T05:08:16;3.67;;;1.42;;
22070;SDS011;11200;51.488;6.668;2023-05-16T05:10:42;3.28;;;1.45;;
22070;SDS011;11200;51.488;6.668;2023-05-16T05:13:09;7.70;;;1.63;;
22070;SDS011;11200;51.488;6.668;2023-05-16T05:15:35;3.75;;;1.50;;
22070;SDS011;11200;51.488;6.668;2023-05-16T05:18:01;3.33;;;1.58;;
22070;SDS011;11200;51.488;6.668;2023-05-16T05:20:26;4.40;;;1.50;;
22070;SDS011;11200;51.488;6.668;2023-05-16T05:22:52;3.80;;;1.77;;
22070;SDS011;11200;51.488;6.668;2023-05-16T05:25:18;3.00;;;1.40;;
22070;SDS011;11200;51.488;6.668;2023-05-16T05:27:43;2.90;;;1.30;;
22070;SDS011;11200;51.488;6.668;2023-05-16T05:30:10;4.82;;;1.48;;
22070;SDS011;11200;51.488;6.668;2023-05-16T05:32:39;3.88;;;1.35;;
22070;SDS011;11200;51.488;6.668;2023-05-16T05:35:05;3.17;;;1.33;;
22070;SDS011;11200;51.488;6.668;2023-05-16T05:37:34;3.35;;;1.25;;
22070;SDS011;11200;51.488;6.668;2023-05-16T05:40:00;5.25;;;1.48;;
22070;SDS011;11200;51.488;6.668;2023-05-16T05:42:27;7.05;;;1.70;;
22070;SDS011;11200;51.488;6.668;2023-05-16T05:44:53;4.70;;;1.65;;
22070;SDS011;11200;51.488;6.668;2023-05-16T05:47:19;3.55;;;1.30;;
22070;SDS011;11200;51.488;6.668;2023-05-16T05:49:46;3.45;;;1.40;;
22070;SDS011;11200;51.488;6.668;2023-05-16T05:52:12;5.38;;;1.67;;
22070;SDS011;11200;51.488;6.668;2023-05-16T05:54:37;4.20;;;1.27;;
22070;SDS011;11200;51.488;6.668;2023-05-16T05:57:03;4.95;;;1.40;;
22070;SDS011;11200;51.488;6.668;2023-05-16T05:59:29;4.85;;;1.40;;
22070;SDS011;11200;51.488;6.668;2023-05-16T06:01:54;3.15;;;1.48;;
22070;SDS011;11200;51.488;6.668;2023-05-16T06:04:20;4.47;;;1.50;;
22070;SDS011;11200;51.488;6.668;2023-05-16T06:06:46;2.78;;;1.30;;
22070;SDS011;11200;51.488;6.668;2023-05-16T06:09:12;4.20;;;1.52;;
22070;SDS011;11200;51.488;6.668;2023-05-16T06:11:39;5.43;;;1.52;;
22070;SDS011;11200;51.488;6.668;2023-05-16T06:14:05;5.53;;;1.83;;
22070;SDS011;11200;51.488;6.668;2023-05-16T06:16:31;5.38;;;1.70;;
22070;SDS011;11200;51.488;6.668;2023-05-16T06:18:57;4.40;;;1.60;;
22070;SDS011;11200;51.488;6.668;2023-05-16T06:21:22;6.18;;;1.80;;
22070;SDS011;11200;51.488;6.668;2023-05-16T06:23:48;5.03;;;1.48;;
22070;SDS011;11200;51.488;6.668;2023-05-16T06:26:14;4.32;;;1.45;;
22070;SDS011;11200;51.488;6.668;2023-05-16T06:28:39;5.00;;;1.63;;
22070;SDS011;11200;51.488;6.668;2023-05-16T06:31:05;4.03;;;1.45;;
22070;SDS011;11200;51.488;6.668;2023-05-16T06:33:33;4.03;;;1.30;;
22070;SDS011;11200;51.488;6.668;2023-05-16T06:35:59;4.50;;;1.30;;
22070;SDS011;11200;51.488;6.668;2023-05-16T06:38:24;2.75;;;1.30;;
22070;SDS011;11200;51.488;6.668;2023-05-16T06:40:50;4.63;;;2.03;;
22070;SDS011;11200;51.488;6.668;2023-05-16T06:43:16;5.22;;;1.52;;
22070;SDS011;11200;51.488;6.668;2023-05-16T06:45:43;3.15;;;1.38;;
22070;SDS011;11200;51.488;6.668;2023-05-16T06:48:08;5.82;;;1.60;;
22070;SDS011;11200;51.488;6.668;2023-05-16T06:50:35;4.82;;;1.63;;
22070;SDS011;11200;51.488;6.668;2023-05-16T06:53:00;5.65;;;1.45;;
22070;SDS011;11200;51.488;6.668;2023-05-16T06:55:28;4.50;;;1.40;;
22070;SDS011;11200;51.488;6.668;2023-05-16T06:57:54;5.75;;;1.70;;
22070;SDS011;11200;51.488;6.668;2023-05-16T07:00:20;4.35;;;1.30;;
22070;SDS011;11200;51.488;6.668;2023-05-16T07:02:46;6.03;;;1.63;;
22070;SDS011;11200;51.488;6.668;2023-05-16T07:05:11;3.95;;;1.42;;
22070;SDS011;11200;51.488;6.668;2023-05-16T07:07:37;4.78;;;1.65;;
22070;SDS011;11200;51.488;6.668;2023-05-16T07:10:03;4.03;;;1.55;;
22070;SDS011;11200;51.488;6.668;2023-05-16T07:12:29;5.82;;;1.65;;
22070;SDS011;11200;51.488;6.668;2023-05-16T07:14:55;3.28;;;1.52;;
22070;SDS011;11200;51.488;6.668;2023-05-16T07:17:20;5.57;;;1.55;;
22070;SDS011;11200;51.488;6.668;2023-05-16T07:19:46;5.00;;;1.50;;
22070;SDS011;11200;51.488;6.668;2023-05-16T07:22:13;3.33;;;1.40;;
22070;SDS011;11200;51.488;6.668;2023-05-16T07:24:39;3.97;;;1.45;;
22070;SDS011;11200;51.488;6.668;2023-05-16T07:27:04;4.78;;;1.40;;
22070;SDS011;11200;51.488;6.668;2023-05-16T07:29:30;4.97;;;1.60;;
22070;SDS011;11200;51.488;6.668;2023-05-16T07:31:56;4.78;;;1.70;;
22070;SDS011;11200;51.488;6.668;2023-05-16T07:34:21;3.78;;;1.30;;
22070;SDS011;11200;51.488;6.668;2023-05-16T07:36:47;3.72;;;1.58;;
22070;SDS011;11200;51.488;6.668;2023-05-16T07:39:13;4.40;;;1.60;;
22070;SDS011;11200;51.488;6.668;2023-05-16T07:41:38;5.70;;;1.60;;
22070;SDS011;11200;51.488;6.668;2023-05-16T07:44:04;2.55;;;1.25;;
22070;SDS011;11200;51.488;6.668;2023-05-16T07:46:30;3.25;;;1.30;;
22070;SDS011;11200;51.488;6.668;2023-05-16T07:48:55;4.53;;;1.33;;
22070;SDS011;11200;51.488;6.668;2023-05-16T07:51:21;2.90;;;1.35;;
22070;SDS011;11200;51.488;6.668;2023-05-16T07:53:47;4.95;;;1.55;;
22070;SDS011;11200;51.488;6.668;2023-05-16T07:56:13;4.15;;;1.40;;
22070;SDS011;11200;51.488;6.668;2023-05-16T07:58:40;4.20;;;1.45;;
22070;SDS011;11200;51.488;6.668;2023-05-16T08:01:05;3.40;;;1.20;;
22070;SDS011;11200;51.488;6.668;2023-05-16T08:03:31;2.72;;;1.20;;
22070;SDS011;11200;51.488;6.668;2023-05-16T08:05:57;3.10;;;1.10;;
22070;SDS011;11200;51.488;6.668;2023-05-16T08:08:22;2.83;;;1.23;;
22070;SDS011;11200;51.488;6.668;2023-05-16T08:10:48;4.82;;;1.50;;
22070;SDS011;11200;51.488;6.668;2023-05-16T08:13:13;2.75;;;1.08;;
22070;SDS011;11200;51.488;6.668;2023-05-16T08:15:39;3.25;;;1.50;;
22070;SDS011;11200;51.488;6.668;2023-05-16T08:18:05;5.38;;;1.55;;
22070;SDS011;11200;51.488;6.668;2023-05-16T08:20:40;4.07;;;1.20;;
22070;SDS011;11200;51.488;6.668;2023-05-16T08:23:06;3.35;;;1.33;;
22070;SDS011;11200;51.488;6.668;2023-05-16T08:25:32;4.35;;;1.48;;
22070;SDS011;11200;51.488;6.668;2023-05-16T08:27:59;3.88;;;1.30;;
22070;SDS011;11200;51.488;6.668;2023-05-16T08:30:26;4.90;;;1.50;;
22070;SDS011;11200;51.488;6.668;2023-05-16T08:32:52;5.45;;;1.60;;
22070;SDS011;11200;51.488;6.668;2023-05-16T08:35:18;3.17;;;1.50;;
22070;SDS011;11200;51.488;6.668;2023-05-16T08:37:44;7.38;;;1.48;;
22070;SDS011;11200;51.488;6.668;2023-05-16T08:40:09;4.45;;;1.42;;
22070;SDS011;11200;51.488;6.668;2023-05-16T08:42:36;3.08;;;1.23;;
22070;SDS011;11200;51.488;6.668;2023-05-16T08:45:02;3.15;;;1.13;;
22070;SDS011;11200;51.488;6.668;2023-05-16T08:47:29;3.33;;;1.20;;
22070;SDS011;11200;51.488;6.668;2023-05-16T08:49:56;2.10;;;0.93;;
22070;SDS011;11200;51.488;6.668;2023-05-16T08:52:24;3.70;;;1.27;;
22070;SDS011;11200;51.488;6.668;2023-05-16T08:54:55;3.15;;;1.10;;
22070;SDS011;11200;51.488;6.668;2023-05-16T08:57:24;3.38;;;1.25;;
22070;SDS011;11200;51.488;6.668;2023-05-16T08:59:51;2.22;;;0.98;;
22070;SDS011;11200;51.488;6.668;2023-05-16T09:02:19;4.82;;;1.40;;
22070;SDS011;11200;51.488;6.668;2023-05-16T09:04:46;3.08;;;1.30;;
22070;SDS011;11200;51.488;6.668;2023-05-16T09:07:14;2.67;;;1.30;;
22070;SDS011;11200;51.488;6.668;2023-05-16T09:09:40;2.53;;;0.95;;
22070;SDS011;11200;51.488;6.668;2023-05-16T09:12:06;2.33;;;0.90;;
22070;SDS011;11200;51.488;6.668;2023-05-16T09:14:32;2.63;;;1.02;;
22070;SDS011;11200;51.488;6.668;2023-05-16T09:17:05;4.38;;;1.05;;
22070;SDS011;11200;51.488;6.668;2023-05-16T09:19:36;2.63;;;1.17;;
22070;SDS011;11200;51.488;6.668;2023-05-16T09:22:06;2.78;;;1.00;;
22070;SDS011;11200;51.488;6.668;2023-05-16T09:24:37;2.92;;;1.00;;
22070;SDS011;11200;51.488;6.668;2023-05-16T09:27:13;3.15;;;1.17;;
22070;SDS011;11200;51.488;6.668;2023-05-16T09:29:40;3.60;;;1.13;;
22070;SDS011;11200;51.488;6.668;2023-05-16T09:32:14;2.67;;;1.17;;
22070;SDS011;11200;51.488;6.668;2023-05-16T09:34:47;3.13;;;1.20;;
22070;SDS011;11200;51.488;6.668;2023-05-16T09:37:15;2.03;;;1.00;;
22070;SDS011;11200;51.488;6.668;2023-05-16T09:39:45;2.47;;;1.13;;
22070;SDS011;11200;51.488;6.668;2023-05-16T09:42:15;2.28;;;1.20;;
22070;SDS011;11200;51.488;6.668;2023-05-16T09:44:47;5.28;;;1.20;;
22070;SDS011;11200;51.488;6.668;2023-05-16T09:47:14;4.75;;;1.30;;
22070;SDS011;11200;51.488;6.668;2023-05-16T09:49:44;2.80;;;1.25;;
22070;SDS011;11200;51.488;6.668;2023-05-16T09:52:12;4.00;;;1.20;;
22070;SDS011;11200;51.488;6.668;2023-05-16T09:54:38;3.75;;;1.27;;
22070;SDS011;11200;51.488;6.668;2023-05-16T09:57:05;3.42;;;1.15;;
22070;SDS011;11200;51.488;6.668;2023-05-16T09:59:38;3.35;;;1.17;;
22070;SDS011;11200;51.488;6.668;2023-05-16T10:02:07;2.95;;;1.30;;
22070;SDS011;11200;51.488;6.668;2023-05-16T10:04:33;3.63;;;1.33;;
22070;SDS011;11200;51.488;6.668;2023-05-16T10:07:01;3.63;;;1.30;;
22070;SDS011;11200;51.488;6.668;2023-05-16T10:09:28;3.13;;;1.08;;
22070;SDS011;11200;51.488;6.668;2023-05-16T10:11:59;3.53;;;1.42;;
22070;SDS011;11200;51.488;6.668;2023-05-16T10:14:34;3.00;;;1.30;;
22070;SDS011;11200;51.488;6.668;2023-05-16T10:17:05;2.88;;;1.20;;
22070;SDS011;11200;51.488;6.668;2023-05-16T10:19:34;3.20;;;1.25;;
22070;SDS011;11200;51.488;6.668;2023-05-16T10:22:03;2.58;;;1.00;;
22070;SDS011;11200;51.488;6.668;2023-05-16T10:24:38;3.08;;;1.30;;
22070;SDS011;11200;51.488;6.668;2023-05-16T10:27:23;2.53;;;0.90;;
22070;SDS011;11200;51.488;6.668;2023-05-16T10:29:49;2.92;;;1.17;;
22070;SDS011;11200;51.488;6.668;2023-05-16T10:32:16;3.03;;;1.13;;
22070;SDS011;11200;51.488;6.668;2023-05-16T10:34:42;2.60;;;1.08;;
22070;SDS011;11200;51.488;6.668;2023-05-16T10:37:10;1.80;;;1.10;;
22070;SDS011;11200;51.488;6.668;2023-05-16T10:39:36;3.30;;;1.40;;
22070;SDS011;11200;51.488;6.668;2023-05-16T10:42:03;3.67;;;1.05;;
22070;SDS011;11200;51.488;6.668;2023-05-16T10:44:31;2.80;;;1.10;;
22070;SDS011;11200;51.488;6.668;2023-05-16T10:46:58;3.53;;;1.38;;
22070;SDS011;11200;51.488;6.668;2023-05-16T10:49:25;2.15;;;1.15;;
22070;SDS011;11200;51.488;6.668;2023-05-16T10:52:01;1.35;;;0.80;;
22070;SDS011;11200;51.488;6.668;2023-05-16T10:54:34;2.05;;;1.05;;
22070;SDS011;11200;51.488;6.668;2023-05-16T10:57:03;2.80;;;1.08;;
22070;SDS011;11200;51.488;6.668;2023-05-16T10:59:40;2.50;;;1.20;;
22070;SDS011;11200;51.488;6.668;2023-05-16T11:02:31;1.15;;;0.82;;
22070;SDS011;11200;51.488;6.668;2023-05-16T11:05:00;1.42;;;0.80;;
22070;SDS011;11200;51.488;6.668;2023-05-16T11:07:31;1.85;;;1.05;;
22070;SDS011;11200;51.488;6.668;2023-05-16T11:12:43;2.30;;;0.90;;
22070;SDS011;11200;51.488;6.668;2023-05-16T11:15:23;0.93;;;0.70;;
22070;SDS011;11200;51.488;6.668;2023-05-16T11:18:36;1.52;;;0.93;;
22070;SDS011;11200;51.488;6.668;2023-05-16T11:20:41;1.80;;;0.77;;
22070;SDS011;11200;51.488;6.668;2023-05-16T11:23:16;1.65;;;0.80;;
22070;SDS011;11200;51.488;6.668;2023-05-16T11:25:53;2.63;;;1.00;;
22070;SDS011;11200;51.488;6.668;2023-05-16T11:28:20;1.88;;;0.88;;
22070;SDS011;11200;51.488;6.668;2023-05-16T11:30:49;1.15;;;0.80;;
22070;SDS011;11200;51.488;6.668;2023-05-16T11:33:20;2.10;;;0.95;;
22070;SDS011;11200;51.488;6.668;2023-05-16T11:36:03;1.30;;;0.75;;
22070;SDS011;11200;51.488;6.668;2023-05-16T11:38:33;1.85;;;0.75;;
22070;SDS011;11200;51.488;6.668;2023-05-16T11:41:03;1.27;;;0.77;;
22070;SDS011;11200;51.488;6.668;2023-05-16T11:43:35;1.75;;;0.85;;
22070;SDS011;11200;51.488;6.668;2023-05-16T11:46:14;1.88;;;0.82;;
22070;SDS011;11200;51.488;6.668;2023-05-16T11:48:40;2.92;;;0.88;;
22070;SDS011;11200;51.488;6.668;2023-05-16T11:51:06;1.48;;;0.77;;
22070;SDS011;11200;51.488;6.668;2023-05-16T11:53:33;1.63;;;0.80;;
22070;SDS011;11200;51.488;6.668;2023-05-16T11:55:59;1.52;;;0.80;;
22070;SDS011;11200;51.488;6.668;2023-05-16T11:58:26;1.60;;;0.80;;
22070;SDS011;11200;51.488;6.668;2023-05-16T12:00:52;1.50;;;0.80;;
22070;SDS011;11200;51.488;6.668;2023-05-16T12:03:18;1.45;;;0.80;;
22070;SDS011;11200;51.488;6.668;2023-05-16T12:09:20;1.60;;;0.68;;
22070;SDS011;11200;51.488;6.668;2023-05-16T12:28:00;1.60;;;0.80;;
22070;SDS011;11200;51.488;6.668;2023-05-16T12:30:27;1.85;;;1.20;;
22070;SDS011;11200;51.488;6.668;2023-05-16T12:32:58;3.38;;;0.80;;
22070;SDS011;11200;51.488;6.668;2023-05-16T12:35:28;1.55;;;0.90;;
22070;SDS011;11200;51.488;6.668;2023-05-16T12:37:55;1.92;;;1.00;;
22070;SDS011;11200;51.488;6.668;2023-05-16T12:40:21;2.28;;;0.82;;
22070;SDS011;11200;51.488;6.668;2023-05-16T12:42:48;1.92;;;0.80;;
22070;SDS011;11200;51.488;6.668;2023-05-16T12:45:15;2.80;;;0.82;;
22070;SDS011;11200;51.488;6.668;2023-05-16T12:47:42;1.88;;;0.93;;
22070;SDS011;11200;51.488;6.668;2023-05-16T12:50:09;1.20;;;0.75;;
22070;SDS011;11200;51.488;6.668;2023-05-16T12:52:45;2.75;;;1.27;;
22070;SDS011;11200;51.488;6.668;2023-05-16T12:55:18;3.55;;;1.88;;
22070;SDS011;11200;51.488;6.668;2023-05-16T12:57:45;4.57;;;2.53;;
22070;SDS011;11200;51.488;6.668;2023-05-16T13:00:12;3.08;;;1.45;;
22070;SDS011;11200;51.488;6.668;2023-05-16T13:02:39;3.30;;;1.42;;
22070;SDS011;11200;51.488;6.668;2023-05-16T13:05:19;2.72;;;1.40;;
22070;SDS011;11200;51.488;6.668;2023-05-16T13:07:47;3.78;;;1.35;;
22070;SDS011;11200;51.488;6.668;2023-05-16T13:10:16;2.72;;;1.30;;
22070;SDS011;11200;51.488;6.668;2023-05-16T13:12:45;3.40;;;1.40;;
22070;SDS011;11200;51.488;6.668;2023-05-16T13:15:11;2.25;;;1.27;;
22070;SDS011;11200;51.488;6.668;2023-05-16T13:17:38;5.07;;;1.65;;
22070;SDS011;11200;51.488;6.668;2023-05-16T13:20:06;4.03;;;1.83;;
22070;SDS011;11200;51.488;6.668;2023-05-16T13:22:34;4.75;;;2.40;;
22070;SDS011;11200;51.488;6.668;2023-05-16T13:25:00;3.65;;;1.73;;
22070;SDS011;11200;51.488;6.668;2023-05-16T13:27:28;3.70;;;1.52;;
22070;SDS011;11200;51.488;6.668;2023-05-16T13:29:54;3.35;;;1.33;;
22070;SDS011;11200;51.488;6.668;2023-05-16T13:32:20;3.00;;;1.50;;
22070;SDS011;11200;51.488;6.668;2023-05-16T13:34:46;5.95;;;1.60;;
22070;SDS011;11200;51.488;6.668;2023-05-16T13:37:12;5.88;;;1.65;;
22070;SDS011;11200;51.488;6.668;2023-05-16T13:39:37;5.30;;;1.80;;
22070;SDS011;11200;51.488;6.668;2023-05-16T13:42:03;4.28;;;1.40;;
22070;SDS011;11200;51.488;6.668;2023-05-16T13:44:29;4.68;;;1.40;;
22070;SDS011;11200;51.488;6.668;2023-05-16T13:46:55;4.95;;;1.50;;
22070;SDS011;11200;51.488;6.668;2023-05-16T13:49:24;3.28;;;1.20;;
22070;SDS011;11200;51.488;6.668;2023-05-16T13:51:50;4.20;;;1.67;;
22070;SDS011;11200;51.488;6.668;2023-05-16T13:54:16;3.72;;;1.52;;
22070;SDS011;11200;51.488;6.668;2023-05-16T13:56:43;2.67;;;1.40;;
22070;SDS011;11200;51.488;6.668;2023-05-16T13:59:09;3.53;;;1.55;;
22070;SDS011;11200;51.488;6.668;2023-05-16T14:01:35;4.50;;;1.45;;
22070;SDS011;11200;51.488;6.668;2023-05-16T14:04:01;1.65;;;1.23;;
22070;SDS011;11200;51.488;6.668;2023-05-16T14:06:27;3.35;;;1.25;;
22070;SDS011;11200;51.488;6.668;2023-05-16T14:08:53;2.40;;;1.50;;
22070;SDS011;11200;51.488;6.668;2023-05-16T14:11:18;4.57;;;1.70;;
22070;SDS011;11200;51.488;6.668;2023-05-16T14:13:47;4.93;;;1.60;;
22070;SDS011;11200;51.488;6.668;2023-05-16T14:16:13;2.67;;;1.30;;
22070;SDS011;11200;51.488;6.668;2023-05-16T14:18:39;2.20;;;1.20;;
22070;SDS011;11200;51.488;6.668;2023-05-16T14:21:07;3.25;;;1.45;;
22070;SDS011;11200;51.488;6.668;2023-05-16T14:23:33;2.85;;;1.25;;
22070;SDS011;11200;51.488;6.668;2023-05-16T14:25:59;2.00;;;1.15;;
22070;SDS011;11200;51.488;6.668;2023-05-16T14:28:24;2.40;;;1.30;;
22070;SDS011;11200;51.488;6.668;2023-05-16T14:30:50;2.92;;;1.50;;
22070;SDS011;11200;51.488;6.668;2023-05-16T14:33:16;3.25;;;1.45;;
22070;SDS011;11200;51.488;6.668;2023-05-16T14:35:41;2.88;;;1.50;;
22070;SDS011;11200;51.488;6.668;2023-05-16T14:38:07;3.25;;;1.38;;
22070;SDS011;11200;51.488;6.668;2023-05-16T14:40:34;3.13;;;1.52;;
22070;SDS011;11200;51.488;6.668;2023-05-16T14:42:59;2.78;;;1.45;;
22070;SDS011;11200;51.488;6.668;2023-05-16T14:45:28;1.90;;;1.35;;
22070;SDS011;11200;51.488;6.668;2023-05-16T14:47:53;3.67;;;1.55;;
22070;SDS011;11200;51.488;6.668;2023-05-16T14:50:19;2.72;;;1.50;;
22070;SDS011;11200;51.488;6.668;2023-05-16T14:52:45;4.55;;;1.80;;
22070;SDS011;11200;51.488;6.668;2023-05-16T14:55:11;4.30;;;1.60;;
22070;SDS011;11200;51.488;6.668;2023-05-16T14:57:36;4.65;;;1.63;;
22070;SDS011;11200;51.488;6.668;2023-05-16T15:00:02;2.78;;;1.67;;
22070;SDS011;11200;51.488;6.668;2023-05-16T15:02:29;3.33;;;1.52;;
22070;SDS011;11200;51.488;6.668;2023-05-16T15:04:55;2.47;;;1.60;;
22070;SDS011;11200;51.488;6.668;2023-05-16T15:07:20;3.35;;;1.48;;
22070;SDS011;11200;51.488;6.668;2023-05-16T15:09:46;2.55;;;1.45;;
22070;SDS011;11200;51.488;6.668;2023-05-16T15:12:12;1.70;;;1.20;;
22070;SDS011;11200;51.488;6.668;2023-05-16T15:14:37;2.58;;;1.42;;
22070;SDS011;11200;51.488;6.668;2023-05-16T15:17:03;4.10;;;1.67;;
22070;SDS011;11200;51.488;6.668;2023-05-16T15:19:29;3.10;;;1.50;;
22070;SDS011;11200;51.488;6.668;2023-05-16T15:21:54;2.10;;;1.30;;
22070;SDS011;11200;51.488;6.668;2023-05-16T15:24:20;3.38;;;1.50;;